createdAt,value
2023-04-08T00:00:59.045Z,9.00
2023-04-08T00:03:27.560Z,9.02
2023-04-08T00:05:56.272Z,9.02
2023-04-08T00:08:24.893Z,9.02
2023-04-08T00:10:55.115Z,9.00
2023-04-08T00:13:23.889Z,8.98
2023-04-08T00:15:52.472Z,8.97
2023-04-08T00:18:21.172Z,8.95
2023-04-08T00:20:49.926Z,8.96
2023-04-08T00:23:18.585Z,8.97
2023-04-08T00:25:47.165Z,8.97
2023-04-08T00:28:17.235Z,8.96
2023-04-08T00:30:45.848Z,8.96
2023-04-08T00:33:14.621Z,8.96
2023-04-08T00:35:43.366Z,8.96
2023-04-08T00:38:12.243Z,8.95
2023-04-08T00:40:40.767Z,8.91
2023-04-08T00:43:09.380Z,8.91
2023-04-08T00:45:39.584Z,8.91
2023-04-08T00:48:08.198Z,8.92
2023-04-08T00:50:36.834Z,8.90
2023-04-08T00:53:05.536Z,8.90
2023-04-08T00:55:34.115Z,8.89
2023-04-08T00:58:03.093Z,8.89
2023-04-08T01:00:32.564Z,8.90
2023-04-08T01:03:12.099Z,8.88
2023-04-08T01:05:51.094Z,8.88
2023-04-08T01:08:19.718Z,8.87
2023-04-08T01:10:52.276Z,8.86
2023-04-08T01:13:23.470Z,8.86
2023-04-08T01:15:52.646Z,8.86
2023-04-08T01:18:25.282Z,8.84
2023-04-08T01:20:55.781Z,8.85
2023-04-08T01:23:33.012Z,8.86
2023-04-08T01:26:03.182Z,8.85
2023-04-08T01:28:32.584Z,8.86
2023-04-08T01:31:03.310Z,8.84
2023-04-08T01:33:32.593Z,8.83
2023-04-08T01:36:02.521Z,8.85
2023-04-08T01:38:32.890Z,8.84
2023-04-08T01:41:04.593Z,8.83
2023-04-08T01:43:35.169Z,8.82
2023-04-08T01:46:06.117Z,8.85
2023-04-08T01:48:35.869Z,8.85
2023-04-08T01:51:07.252Z,8.85
2023-04-08T01:53:37.844Z,8.84
2023-04-08T01:56:12.767Z,8.82
2023-04-08T01:58:47.695Z,8.82
2023-04-08T02:01:21.131Z,8.82
2023-04-08T02:03:56.379Z,8.80
2023-04-08T02:06:27.679Z,8.80
2023-04-08T02:08:56.738Z,8.78
2023-04-08T02:11:26.400Z,8.77
2023-04-08T02:13:55.430Z,8.76
2023-04-08T02:16:29.714Z,8.76
2023-04-08T02:19:04.697Z,8.74
2023-04-08T02:21:51.426Z,8.72
2023-04-08T02:24:21.578Z,8.73
2023-04-08T02:26:53.674Z,8.73
2023-04-08T02:29:22.762Z,8.72
2023-04-08T02:31:55.763Z,8.72
2023-04-08T02:34:25.359Z,8.71
2023-04-08T02:36:54.732Z,8.70
2023-04-08T02:39:31.341Z,8.69
2023-04-08T02:42:01.102Z,8.69
2023-04-08T02:44:29.679Z,8.68
2023-04-08T02:47:01.069Z,8.68
2023-04-08T02:49:29.701Z,8.67
2023-04-08T02:51:59.242Z,8.66
2023-04-08T02:54:27.870Z,8.66
2023-04-08T02:56:56.427Z,8.66
2023-04-08T02:59:26.233Z,8.67
2023-04-08T03:01:54.577Z,8.65
2023-04-08T03:04:23.209Z,8.65
2023-04-08T03:06:51.772Z,8.64
2023-04-08T03:09:20.852Z,8.64
2023-04-08T03:11:54.773Z,8.64
2023-04-08T03:14:23.279Z,8.64
2023-04-08T03:16:53.343Z,8.64
2023-04-08T03:19:22.002Z,8.63
2023-04-08T03:21:50.742Z,8.62
2023-04-08T03:24:19.096Z,8.62
2023-04-08T03:26:47.714Z,8.62
2023-04-08T03:29:16.376Z,8.61
2023-04-08T03:31:45.142Z,8.60
2023-04-08T03:34:14.846Z,8.59
2023-04-08T03:36:43.423Z,8.57
2023-04-08T03:39:12.108Z,8.56
2023-04-08T03:41:40.726Z,8.56
2023-04-08T03:44:09.377Z,8.54
2023-04-08T03:46:37.957Z,8.52
2023-04-08T03:49:07.348Z,8.50
2023-04-08T03:51:37.061Z,8.48
2023-04-08T03:54:05.730Z,8.49
2023-04-08T03:56:34.326Z,8.46
2023-04-08T03:59:02.982Z,8.44
2023-04-08T04:01:32.349Z,8.42
2023-04-08T04:04:00.996Z,8.41
2023-04-08T04:06:29.776Z,8.39
2023-04-08T04:08:59.502Z,8.37
2023-04-08T04:11:28.257Z,8.35
2023-04-08T04:13:57.029Z,8.34
2023-04-08T04:16:25.788Z,8.31
2023-04-08T04:18:54.682Z,8.29
2023-04-08T04:21:23.377Z,8.28
2023-04-08T04:23:51.633Z,8.27
2023-04-08T04:26:21.350Z,8.23
2023-04-08T04:28:50.190Z,8.21
2023-04-08T04:31:23.118Z,8.19
2023-04-08T04:33:51.862Z,8.17
2023-04-08T04:36:20.634Z,8.15
2023-04-08T04:38:50.758Z,8.13
2023-04-08T04:41:21.790Z,8.11
2023-04-08T04:43:50.498Z,8.10
2023-04-08T04:46:19.120Z,8.09
2023-04-08T04:48:47.947Z,8.08
2023-04-08T04:51:16.666Z,8.07
2023-04-08T04:53:45.421Z,8.06
2023-04-08T04:56:14.109Z,8.06
2023-04-08T04:58:43.768Z,8.06
2023-04-08T05:01:12.391Z,8.06
2023-04-08T05:03:41.220Z,8.07
2023-04-08T05:06:09.819Z,8.08
2023-04-08T05:08:38.387Z,8.07
2023-04-08T05:11:11.354Z,8.07
2023-04-08T05:13:40.057Z,8.07
2023-04-08T05:16:10.610Z,8.06
2023-04-08T05:18:39.612Z,8.05
2023-04-08T05:21:08.212Z,8.00
2023-04-08T05:23:36.845Z,7.98
2023-04-08T05:26:07.977Z,7.93
2023-04-08T05:28:36.844Z,7.86
2023-04-08T05:31:05.489Z,7.81
2023-04-08T05:33:35.215Z,7.74
2023-04-08T05:36:03.852Z,7.69
2023-04-08T05:38:32.444Z,7.64
2023-04-08T05:41:01.356Z,7.60
2023-04-08T05:43:30.080Z,7.53
2023-04-08T05:45:58.753Z,7.50
2023-04-08T05:48:27.173Z,7.46
2023-04-08T05:50:57.042Z,7.40
2023-04-08T05:53:26.211Z,7.37
2023-04-08T05:55:54.965Z,7.32
2023-04-08T05:58:23.702Z,7.28
2023-04-08T06:00:52.300Z,7.29
2023-04-08T06:03:21.077Z,7.31
2023-04-08T06:05:49.535Z,7.29
2023-04-08T06:08:19.575Z,7.28
2023-04-08T06:10:51.148Z,7.28
2023-04-08T06:13:21.091Z,7.30
2023-04-08T06:15:50.252Z,7.31
2023-04-08T06:18:18.856Z,7.28
2023-04-08T06:20:47.478Z,7.28
2023-04-08T06:23:16.570Z,7.24
2023-04-08T06:25:46.464Z,7.24
2023-04-08T06:28:14.745Z,7.24
2023-04-08T06:30:43.308Z,7.26
2023-04-08T06:33:11.923Z,7.29
2023-04-08T06:35:40.609Z,7.34
2023-04-08T06:38:09.275Z,7.39
2023-04-08T06:40:40.343Z,7.43
2023-04-08T06:43:10.378Z,7.47
2023-04-08T06:45:42.922Z,7.47
2023-04-08T06:48:12.053Z,7.49
2023-04-08T06:50:40.828Z,7.53
2023-04-08T06:53:09.450Z,7.61
2023-04-08T06:55:38.033Z,7.66
2023-04-08T06:58:06.695Z,7.71
2023-04-08T07:00:37.057Z,7.77
2023-04-08T07:03:06.148Z,7.92
2023-04-08T07:05:36.788Z,8.11
2023-04-08T07:08:05.602Z,8.33
2023-04-08T07:10:35.448Z,8.52
2023-04-08T07:13:04.394Z,8.68
2023-04-08T07:15:32.996Z,8.78
2023-04-08T07:18:02.890Z,8.79
2023-04-08T07:20:32.369Z,8.76
2023-04-08T07:23:01.102Z,8.69
2023-04-08T07:25:29.376Z,8.63
2023-04-08T07:27:58.240Z,8.64
2023-04-08T07:30:26.637Z,8.67
2023-04-08T07:32:56.571Z,8.70
2023-04-08T07:35:28.369Z,8.76
2023-04-08T07:37:57.947Z,8.83
2023-04-08T07:40:27.560Z,8.92
2023-04-08T07:42:56.974Z,9.00
2023-04-08T07:45:26.353Z,9.10
2023-04-08T07:47:56.590Z,9.20
2023-04-08T07:50:26.894Z,9.29
2023-04-08T07:52:55.900Z,9.35
2023-04-08T07:55:24.474Z,9.42
2023-04-08T07:57:53.145Z,9.52
2023-04-08T08:00:22.266Z,9.73
2023-04-08T08:02:50.777Z,9.93
2023-04-08T08:05:19.810Z,10.10
2023-04-08T08:07:50.448Z,10.23
2023-04-08T08:10:19.171Z,10.30
2023-04-08T08:12:47.797Z,10.36
2023-04-08T08:15:16.731Z,10.36
2023-04-08T08:17:45.512Z,10.35
2023-04-08T08:20:14.202Z,10.34
2023-04-08T08:22:56.375Z,10.36
2023-04-08T08:25:27.561Z,10.35
2023-04-08T08:27:56.153Z,10.37
2023-04-08T08:30:26.374Z,10.43
2023-04-08T08:32:55.007Z,10.53
2023-04-08T08:35:23.490Z,10.64
2023-04-08T08:37:52.211Z,10.96
2023-04-08T08:40:20.973Z,11.45
2023-04-08T08:42:54.040Z,11.92
2023-04-08T08:45:22.847Z,12.18
2023-04-08T08:47:52.234Z,12.27
2023-04-08T08:50:21.179Z,12.45
2023-04-08T08:52:53.184Z,12.57
2023-04-08T08:55:41.436Z,12.68
2023-04-08T08:58:12.583Z,12.83
2023-04-08T09:00:44.859Z,12.87
2023-04-08T09:03:21.787Z,12.80
2023-04-08T09:05:52.657Z,12.82
2023-04-08T09:08:31.777Z,12.81
2023-04-08T09:11:14.782Z,12.83
2023-04-08T09:13:45.392Z,12.98
2023-04-08T09:16:17.935Z,13.00
2023-04-08T09:18:49.428Z,13.06
2023-04-08T09:21:19.115Z,13.24
2023-04-08T09:23:49.873Z,13.43
2023-04-08T09:26:22.189Z,13.51
2023-04-08T09:29:10.993Z,13.54
2023-04-08T09:31:43.414Z,13.44
2023-04-08T09:34:14.468Z,13.31
2023-04-08T09:36:44.530Z,13.27
2023-04-08T09:39:13.192Z,13.27
2023-04-08T09:41:44.181Z,13.24
2023-04-08T09:44:16.578Z,13.28
2023-04-08T09:46:59.420Z,13.30
2023-04-08T09:49:30.091Z,13.25
2023-04-08T09:52:08.324Z,13.13
2023-04-08T09:54:49.102Z,13.12
2023-04-08T09:57:26.641Z,13.15
2023-04-08T10:00:05.845Z,13.12
2023-04-08T10:02:52.698Z,13.16
2023-04-08T10:05:22.200Z,13.09
2023-04-08T10:07:51.574Z,13.07
2023-04-08T10:10:20.849Z,12.98
2023-04-08T10:12:50.285Z,12.88
2023-04-08T10:15:28.082Z,12.78
2023-04-08T10:17:58.235Z,12.67
2023-04-08T10:20:44.736Z,12.59
2023-04-08T10:23:14.351Z,12.49
2023-04-08T10:25:44.788Z,12.49
2023-04-08T10:28:27.139Z,12.52
2023-04-08T10:30:58.685Z,12.43
2023-04-08T10:33:37.187Z,12.41
2023-04-08T10:36:12.517Z,12.38
2023-04-08T10:38:42.557Z,12.44
2023-04-08T10:41:14.427Z,12.46
2023-04-08T10:43:43.206Z,12.50
2023-04-08T10:46:13.421Z,12.52
2023-04-08T10:48:41.887Z,12.62
2023-04-08T10:51:10.612Z,12.76
2023-04-08T10:53:40.496Z,12.82
2023-04-08T10:56:13.071Z,12.75
2023-04-08T10:58:50.550Z,12.76
2023-04-08T11:01:21.311Z,12.73
2023-04-08T11:03:50.643Z,12.81
2023-04-08T11:06:19.636Z,12.90
2023-04-08T11:08:48.289Z,12.98
2023-04-08T11:11:16.923Z,13.04
2023-04-08T11:13:53.402Z,13.13
2023-04-08T11:16:25.978Z,13.17
2023-04-08T11:18:55.570Z,13.22
2023-04-08T11:21:29.093Z,13.40
2023-04-08T11:23:57.947Z,13.62
2023-04-08T11:26:28.460Z,13.76
2023-04-08T11:28:58.518Z,13.83
2023-04-08T11:31:29.505Z,13.72
2023-04-08T11:33:58.418Z,13.74
2023-04-08T11:36:27.645Z,13.82
2023-04-08T11:38:56.549Z,14.00
2023-04-08T11:41:26.645Z,14.24
2023-04-08T11:43:58.411Z,14.39
2023-04-08T11:46:28.455Z,14.49
2023-04-08T11:49:02.035Z,14.58
2023-04-08T11:51:30.877Z,14.60
2023-04-08T11:53:59.227Z,14.59
2023-04-08T11:56:30.397Z,14.69
2023-04-08T11:58:59.051Z,14.92
2023-04-08T12:01:29.008Z,15.21
2023-04-08T12:04:02.961Z,15.47
2023-04-08T12:06:31.924Z,15.78
2023-04-08T12:09:00.353Z,16.07
2023-04-08T12:11:28.999Z,15.94
2023-04-08T12:13:57.687Z,16.00
2023-04-08T12:16:26.403Z,16.33
2023-04-08T12:18:56.250Z,16.77
2023-04-08T12:21:24.586Z,17.04
2023-04-08T12:23:53.489Z,17.19
2023-04-08T12:26:22.341Z,17.09
2023-04-08T12:28:50.648Z,16.96
2023-04-08T12:31:19.222Z,16.84
2023-04-08T12:33:48.049Z,16.57
2023-04-08T12:36:18.289Z,16.30
2023-04-08T12:38:48.154Z,16.13
2023-04-08T12:41:17.067Z,16.42
2023-04-08T12:43:45.706Z,16.88
2023-04-08T12:46:14.316Z,17.00
2023-04-08T12:48:45.101Z,17.40
2023-04-08T12:51:13.804Z,17.77
2023-04-08T12:53:43.500Z,17.74
2023-04-08T12:56:12.305Z,17.64
2023-04-08T12:58:40.613Z,17.45
2023-04-08T13:01:09.376Z,17.24
2023-04-08T13:03:38.090Z,17.16
2023-04-08T13:06:07.399Z,17.15
2023-04-08T13:08:36.083Z,17.19
2023-04-08T13:11:06.396Z,17.14
2023-04-08T13:13:34.695Z,17.29
2023-04-08T13:16:03.222Z,17.57
2023-04-08T13:18:31.952Z,17.61
2023-04-08T13:21:00.664Z,17.74
2023-04-08T13:23:29.009Z,17.81
2023-04-08T13:25:57.609Z,17.78
2023-04-08T13:28:27.363Z,17.75
2023-04-08T13:30:56.097Z,17.68
2023-04-08T13:33:24.697Z,17.71
2023-04-08T13:35:53.257Z,17.83
2023-04-08T13:38:21.879Z,17.73
2023-04-08T13:40:50.874Z,17.49
2023-04-08T13:43:19.467Z,17.17
2023-04-08T13:45:49.356Z,16.93
2023-04-08T13:48:17.997Z,16.71
2023-04-08T13:50:46.774Z,16.58
2023-04-08T13:53:17.449Z,16.42
2023-04-08T13:55:46.270Z,16.36
2023-04-08T13:58:23.502Z,16.28
2023-04-08T14:00:54.649Z,16.23
2023-04-08T14:03:23.016Z,16.15
2023-04-08T14:05:52.330Z,16.12
2023-04-08T14:08:25.294Z,16.14
2023-04-08T14:10:54.469Z,16.20
2023-04-08T14:13:22.812Z,16.24
2023-04-08T14:15:55.025Z,16.18
2023-04-08T14:18:23.615Z,16.13
2023-04-08T14:20:52.192Z,16.05
2023-04-08T14:23:21.176Z,15.95
2023-04-08T14:25:49.775Z,15.88
2023-04-08T14:28:18.389Z,15.86
2023-04-08T14:30:47.517Z,15.97
2023-04-08T14:33:17.327Z,16.13
2023-04-08T14:35:45.900Z,16.19
2023-04-08T14:38:14.243Z,16.19
2023-04-08T14:40:42.509Z,16.19
2023-04-08T14:43:11.109Z,16.13
2023-04-08T14:45:39.742Z,16.06
2023-04-08T14:48:08.365Z,16.01
2023-04-08T14:50:38.068Z,16.01
2023-04-08T14:53:06.862Z,15.99
2023-04-08T14:55:35.444Z,15.88
2023-04-08T14:58:04.170Z,15.75
2023-04-08T15:00:33.046Z,15.62
2023-04-08T15:03:01.400Z,15.53
2023-04-08T15:05:29.993Z,15.49
2023-04-08T15:07:59.702Z,15.44
2023-04-08T15:10:28.683Z,15.43
2023-04-08T15:12:57.294Z,15.44
2023-04-08T15:15:25.930Z,15.41
2023-04-08T15:17:54.578Z,15.31
2023-04-08T15:20:23.207Z,15.19
2023-04-08T15:22:51.865Z,15.05
2023-04-08T15:25:21.828Z,14.94
2023-04-08T15:27:50.484Z,14.89
2023-04-08T15:30:24.219Z,14.87
2023-04-08T15:32:53.626Z,14.84
2023-04-08T15:35:22.858Z,14.77
2023-04-08T15:37:51.460Z,14.67
2023-04-08T15:40:21.906Z,14.60
2023-04-08T15:42:50.487Z,14.54
2023-04-08T15:45:19.281Z,14.49
2023-04-08T15:47:48.312Z,14.45
2023-04-08T15:50:17.286Z,14.45
2023-04-08T15:52:45.962Z,14.49
2023-04-08T15:55:14.818Z,14.52
2023-04-08T15:57:44.454Z,14.66
2023-04-08T16:00:16.128Z,15.13
2023-04-08T16:02:46.588Z,15.60
2023-04-08T16:05:15.735Z,15.92
2023-04-08T16:07:44.075Z,16.21
2023-04-08T16:10:12.865Z,16.29
2023-04-08T16:12:41.647Z,16.17
2023-04-08T16:15:12.292Z,15.92
2023-04-08T16:17:41.060Z,15.83
2023-04-08T16:20:10.683Z,15.67
2023-04-08T16:22:39.300Z,15.55
2023-04-08T16:25:09.273Z,15.53
2023-04-08T16:27:38.480Z,15.42
2023-04-08T16:30:08.079Z,15.28
2023-04-08T16:32:38.115Z,15.15
2023-04-08T16:35:07.521Z,15.02
2023-04-08T16:37:36.098Z,14.93
2023-04-08T16:40:04.985Z,14.88
2023-04-08T16:42:33.867Z,14.87
2023-04-08T16:45:02.840Z,14.81
2023-04-08T16:47:31.653Z,14.75
2023-04-08T16:50:01.428Z,14.70
2023-04-08T16:52:29.977Z,14.70
2023-04-08T16:54:58.855Z,14.71
2023-04-08T16:57:27.495Z,14.67
2023-04-08T16:59:56.047Z,14.61
2023-04-08T17:02:24.838Z,14.54
2023-04-08T17:04:53.530Z,14.42
2023-04-08T17:07:23.223Z,14.31
2023-04-08T17:09:52.787Z,14.22
2023-04-08T17:12:21.787Z,14.08
2023-04-08T17:14:50.433Z,13.90
2023-04-08T17:17:18.820Z,13.77
2023-04-08T17:19:47.373Z,13.67
2023-04-08T17:22:16.430Z,13.57
2023-04-08T17:24:47.960Z,13.50
2023-04-08T17:27:16.837Z,13.42
2023-04-08T17:29:45.397Z,13.31
2023-04-08T17:32:14.047Z,13.23
2023-04-08T17:34:42.658Z,13.17
2023-04-08T17:37:11.303Z,13.10
2023-04-08T17:39:40.922Z,13.06
2023-04-08T17:42:11.320Z,13.01
2023-04-08T17:44:42.140Z,12.95
2023-04-08T17:47:10.795Z,12.91
2023-04-08T17:49:39.362Z,12.86
2023-04-08T17:52:08.137Z,12.81
2023-04-08T17:54:36.751Z,12.75
2023-04-08T17:57:05.394Z,12.69
2023-04-08T17:59:35.374Z,12.66
2023-04-08T18:02:03.821Z,12.60
2023-04-08T18:04:32.327Z,12.53
2023-04-08T18:07:03.885Z,12.48
2023-04-08T18:09:32.552Z,12.44
2023-04-08T18:12:01.293Z,12.38
2023-04-08T18:14:30.525Z,12.35
2023-04-08T18:17:00.256Z,12.32
2023-04-08T18:19:28.638Z,12.29
2023-04-08T18:21:56.985Z,12.25
2023-04-08T18:24:26.050Z,12.21
2023-04-08T18:27:03.952Z,12.19
2023-04-08T18:29:33.281Z,12.16
2023-04-08T18:32:03.323Z,12.14
2023-04-08T18:34:32.667Z,12.11
2023-04-08T18:37:01.308Z,12.10
2023-04-08T18:39:29.626Z,12.09
2023-04-08T18:41:57.906Z,12.10
2023-04-08T18:44:26.240Z,12.09
2023-04-08T18:46:54.796Z,12.09
2023-04-08T18:49:24.882Z,12.08
2023-04-08T18:52:01.894Z,12.06
2023-04-08T18:54:32.081Z,12.04
2023-04-08T18:57:00.845Z,12.03
2023-04-08T18:59:29.924Z,12.02
2023-04-08T19:01:58.841Z,12.00
2023-04-08T19:04:28.704Z,11.98
2023-04-08T19:06:57.414Z,11.96
2023-04-08T19:09:26.135Z,11.93
2023-04-08T19:11:54.959Z,11.91
2023-04-08T19:14:24.638Z,11.90
2023-04-08T19:16:53.224Z,11.88
2023-04-08T19:19:21.866Z,11.87
2023-04-08T19:21:51.855Z,11.86
2023-04-08T19:24:20.835Z,11.83
2023-04-08T19:26:51.306Z,11.83
2023-04-08T19:29:22.961Z,11.82
2023-04-08T19:31:52.829Z,11.79
2023-04-08T19:34:21.495Z,11.76
2023-04-08T19:36:51.210Z,11.76
2023-04-08T19:39:19.812Z,11.73
2023-04-08T19:41:48.476Z,11.72
2023-04-08T19:44:17.072Z,11.68
2023-04-08T19:46:45.711Z,11.66
2023-04-08T19:49:14.334Z,11.63
2023-04-08T19:51:42.888Z,11.60
2023-04-08T19:54:12.672Z,11.58
2023-04-08T19:56:41.014Z,11.57
2023-04-08T19:59:10.714Z,11.52
2023-04-08T20:01:40.414Z,11.50
2023-04-08T20:04:09.115Z,11.46
2023-04-08T20:06:37.756Z,11.44
2023-04-08T20:09:06.353Z,11.40
2023-04-08T20:11:36.500Z,11.37
2023-04-08T20:14:05.366Z,11.33
2023-04-08T20:16:34.131Z,11.30
2023-04-08T20:19:02.933Z,11.26
2023-04-08T20:21:32.602Z,11.23
2023-04-08T20:24:01.625Z,11.19
2023-04-08T20:26:29.934Z,11.14
2023-04-08T20:28:59.654Z,11.10
2023-04-08T20:31:28.389Z,11.05
2023-04-08T20:33:57.021Z,10.99
2023-04-08T20:36:25.766Z,10.93
2023-04-08T20:38:54.999Z,10.90
2023-04-08T20:41:25.856Z,10.84
2023-04-08T20:43:55.082Z,10.80
2023-04-08T20:46:25.032Z,10.75
2023-04-08T20:48:53.868Z,10.71
2023-04-08T20:51:22.674Z,10.67
2023-04-08T20:53:50.979Z,10.65
2023-04-08T20:56:19.633Z,10.60
2023-04-08T20:58:48.304Z,10.58
2023-04-08T21:01:17.002Z,10.56
2023-04-08T21:03:46.803Z,10.52
2023-04-08T21:06:19.175Z,10.47
2023-04-08T21:08:48.184Z,10.43
2023-04-08T21:11:17.558Z,10.38
2023-04-08T21:13:48.776Z,10.35
2023-04-08T21:16:17.845Z,10.30
2023-04-08T21:18:47.610Z,10.25
2023-04-08T21:21:16.194Z,10.21
2023-04-08T21:23:44.763Z,10.15
2023-04-08T21:26:13.671Z,10.10
2023-04-08T21:28:42.041Z,10.03
2023-04-08T21:31:10.861Z,9.95
2023-04-08T21:33:40.009Z,9.89
2023-04-08T21:36:10.362Z,9.84
2023-04-08T21:38:39.434Z,9.78
2023-04-08T21:41:07.987Z,9.73
2023-04-08T21:43:36.670Z,9.66
2023-04-08T21:46:05.893Z,9.61
2023-04-08T21:48:34.593Z,9.55
2023-04-08T21:51:03.178Z,9.50
2023-04-08T21:53:33.186Z,9.46
2023-04-08T21:56:01.802Z,9.42
2023-04-08T21:58:30.472Z,9.39
2023-04-08T22:00:59.194Z,9.35
2023-04-08T22:03:27.871Z,9.30
2023-04-08T22:05:56.515Z,9.24
2023-04-08T22:08:25.124Z,9.14
2023-04-08T22:10:54.824Z,9.07
2023-04-08T22:13:23.390Z,8.99
2023-04-08T22:15:51.964Z,8.91
2023-04-08T22:18:20.245Z,8.84
2023-04-08T22:20:48.848Z,8.77
2023-04-08T22:23:17.454Z,8.72
2023-04-08T22:25:46.083Z,8.66
2023-04-08T22:28:16.496Z,8.61
2023-04-08T22:30:44.875Z,8.57
2023-04-08T22:33:13.578Z,8.51
2023-04-08T22:35:42.864Z,8.44
2023-04-08T22:38:11.652Z,8.39
2023-04-08T22:40:40.286Z,8.32
2023-04-08T22:43:08.868Z,8.25
2023-04-08T22:45:39.935Z,8.19
2023-04-08T22:48:08.586Z,8.14
2023-04-08T22:50:37.173Z,8.07
2023-04-08T22:53:05.915Z,8.03
2023-04-08T22:55:34.340Z,7.99
2023-04-08T22:58:03.010Z,7.95
2023-04-08T23:00:31.720Z,7.89
2023-04-08T23:03:04.565Z,7.85
2023-04-08T23:05:33.430Z,7.83
2023-04-08T23:08:01.798Z,7.80
2023-04-08T23:10:30.223Z,7.77
2023-04-08T23:12:58.824Z,7.73
2023-04-08T23:15:27.483Z,7.70
2023-04-08T23:17:56.189Z,7.70
2023-04-08T23:20:25.992Z,7.69
2023-04-08T23:22:54.554Z,7.70
2023-04-08T23:25:23.137Z,7.67
2023-04-08T23:27:51.730Z,7.63
2023-04-08T23:30:20.541Z,7.60
2023-04-08T23:32:49.190Z,7.59
2023-04-08T23:35:17.846Z,7.58
2023-04-08T23:37:47.802Z,7.58
2023-04-08T23:40:16.436Z,7.58
2023-04-08T23:42:45.133Z,7.57
2023-04-08T23:45:13.774Z,7.60
2023-04-08T23:47:42.402Z,7.62
2023-04-08T23:50:11.355Z,7.66
2023-04-08T23:52:39.929Z,7.69
2023-04-08T23:55:10.739Z,7.71
2023-04-08T23:57:42.283Z,7.73
